Time;durP1;ratioP1;P1;durP2;ratioP2;P2;SDS_P1;SDS_P2;PMS_P1;PMS_P2;Temp;Humidity;BMP_temperature;BMP_pressure;BME280_temperature;BME280_humidity;BME280_pressure;Samples;Min_cycle;Max_cycle;Signal;HPM_P1;HPM_P2
2021/05/29 00:01:18;;;;;;;8.43;7.00;;;;;;;11.20;87.28;97653.08;1631676;88;21086;-80
2021/05/29 00:03:45;;;;;;;8.75;7.85;;;;;;;11.19;87.09;97651.80;1631764;88;21081;-80
2021/05/29 00:06:12;;;;;;;11.05;7.60;;;;;;;11.17;87.69;97654.98;1631731;88;21129;-79
2021/05/29 00:08:38;;;;;;;7.97;6.40;;;;;;;11.12;87.55;97647.66;1631539;87;21554;-79
2021/05/29 00:11:07;;;;;;;12.33;6.67;;;;;;;11.12;87.08;97656.47;1631743;88;21073;-78
2021/05/29 00:13:34;;;;;;;8.53;6.22;;;;;;;11.14;87.10;97653.31;1631961;88;21037;-79
2021/05/29 00:16:01;;;;;;;8.20;6.80;;;;;;;11.16;86.79;97645.27;1631795;88;21598;-79
2021/05/29 00:18:28;;;;;;;9.48;7.10;;;;;;;11.15;86.61;97644.42;1653374;86;21534;-79
2021/05/29 00:20:55;;;;;;;8.28;7.03;;;;;;;11.12;87.32;97644.53;1635305;86;21069;-79
2021/05/29 00:23:22;;;;;;;8.65;7.45;;;;;;;11.09;86.77;97645.52;1637687;86;21066;-79
2021/05/29 00:25:50;;;;;;;12.15;7.03;;;;;;;11.04;86.75;97650.60;1651798;86;21080;-80
2021/05/29 00:28:18;;;;;;;11.18;6.47;;;;;;;10.96;87.97;97641.58;1631564;88;22258;-79
2021/05/29 00:30:46;;;;;;;10.43;6.85;;;;;;;10.98;87.84;97644.17;1652285;86;21046;-80
2021/05/29 00:33:13;;;;;;;7.22;6.20;;;;;;;10.96;88.16;97644.23;1658357;86;21101;-80
2021/05/29 00:35:41;;;;;;;11.43;6.50;;;;;;;10.95;88.05;97640.73;1658291;86;21511;-80
2021/05/29 00:38:08;;;;;;;9.68;6.17;;;;;;;10.98;87.63;97645.50;1658480;86;21519;-79
2021/05/29 00:40:36;;;;;;;7.12;5.25;;;;;;;10.95;88.65;97653.98;1646172;86;21081;-78
2021/05/29 00:43:05;;;;;;;9.28;5.83;;;;;;;10.99;87.90;97646.78;1633345;86;21082;-79
2021/05/29 00:45:33;;;;;;;8.00;5.42;;;;;;;11.03;87.87;97652.38;1645604;86;21571;-78
2021/05/29 00:48:00;;;;;;;10.45;5.72;;;;;;;11.13;87.32;97658.19;1658371;86;21082;-79
2021/05/29 00:50:28;;;;;;;8.35;6.72;;;;;;;11.18;86.99;97660.20;1658390;86;21066;-79
2021/05/29 00:52:55;;;;;;;7.75;6.08;;;;;;;11.12;87.56;97659.59;1658361;86;21101;-81
2021/05/29 00:55:22;;;;;;;7.58;6.20;;;;;;;11.10;87.27;97663.63;1658448;86;21519;-80
2021/05/29 00:57:50;;;;;;;6.90;6.17;;;;;;;11.06;87.46;97660.68;1658307;86;21053;-80
2021/05/29 01:00:21;;;;;;;8.05;6.70;;;;;;;11.02;87.37;97660.38;1653381;85;21046;-80
2021/05/29 01:02:51;;;;;;;8.10;6.65;;;;;;;10.98;87.53;97664.06;1652314;87;21119;-80
2021/05/29 01:05:20;;;;;;;8.33;6.90;;;;;;;10.95;87.81;97659.73;1652792;87;21016;-81
2021/05/29 01:07:54;;;;;;;8.83;6.72;;;;;;;10.93;87.30;97657.62;1648154;86;21089;-80
2021/05/29 01:10:24;;;;;;;10.88;6.87;;;;;;;10.90;87.62;97660.37;1640057;86;21530;-80
2021/05/29 01:12:53;;;;;;;7.90;7.10;;;;;;;10.84;87.20;97658.83;1656753;86;21049;-80
2021/05/29 01:15:22;;;;;;;11.33;7.35;;;;;;;10.80;86.97;97652.75;1631632;88;21093;-80
2021/05/29 01:17:49;;;;;;;9.73;6.95;;;;;;;10.74;86.44;97651.65;1631521;88;21499;-79
2021/05/29 01:20:18;;;;;;;9.05;7.05;;;;;;;10.67;86.59;97652.33;1631601;88;21071;-79
2021/05/29 01:22:53;;;;;;;9.58;7.58;;;;;;;10.63;86.61;97650.70;1631488;88;21093;-79
2021/05/29 01:25:35;;;;;;;10.30;7.72;;;;;;;10.56;86.55;97647.39;1631623;88;21037;-79
2021/05/29 01:28:15;;;;;;;10.05;7.15;;;;;;;10.49;86.51;97645.89;1631673;88;21403;-81
2021/05/29 01:30:56;;;;;;;9.50;7.45;;;;;;;10.43;86.49;97646.08;1631602;88;21157;-80
2021/05/29 01:33:31;;;;;;;7.58;6.87;;;;;;;10.34;86.45;97649.89;1638217;86;21065;-80
2021/05/29 01:36:08;;;;;;;9.68;7.53;;;;;;;10.24;86.61;97651.13;1644144;86;21117;-80
2021/05/29 01:38:38;;;;;;;8.58;7.65;;;;;;;10.20;87.35;97653.47;1657909;86;21101;-79
2021/05/29 01:41:09;;;;;;;11.75;8.40;;;;;;;10.13;87.80;97646.21;1658359;86;21042;-80
2021/05/29 01:43:40;;;;;;;9.15;7.05;;;;;;;10.05;87.66;97650.41;1657910;86;21049;-80
2021/05/29 01:46:09;;;;;;;9.78;7.72;;;;;;;10.00;87.37;97649.25;1658295;86;21089;-80
2021/05/29 01:48:39;;;;;;;10.58;7.47;;;;;;;9.97;87.35;97645.84;1658295;86;21093;-80
2021/05/29 01:51:06;;;;;;;10.70;7.37;;;;;;;9.90;87.37;97648.70;1658419;86;21082;-79
2021/05/29 01:53:33;;;;;;;10.82;7.55;;;;;;;9.86;87.50;97650.16;1658397;86;21057;-79
2021/05/29 01:56:01;;;;;;;12.65;8.83;;;;;;;9.81;87.55;97642.38;1637958;86;21058;-79
2021/05/29 01:58:28;;;;;;;8.43;7.37;;;;;;;9.77;87.49;97644.71;1656485;86;21035;-79
2021/05/29 02:00:55;;;;;;;11.63;7.30;;;;;;;9.73;87.46;97646.59;1650722;86;21065;-79
2021/05/29 02:03:22;;;;;;;9.48;7.05;;;;;;;9.66;87.53;97647.69;1636185;86;21538;-79
2021/05/29 02:05:49;;;;;;;9.40;7.00;;;;;;;9.61;87.69;97647.84;1654528;87;21497;-79
2021/05/29 02:08:16;;;;;;;11.50;7.62;;;;;;;9.57;87.75;97645.33;1652899;87;21158;-79
2021/05/29 02:10:46;;;;;;;9.10;7.37;;;;;;;9.51;87.73;97645.93;1654824;86;21047;-79
2021/05/29 02:13:34;;;;;;;8.90;7.28;;;;;;;9.45;88.03;97643.48;1654711;87;21091;-79
2021/05/29 02:16:02;;;;;;;9.83;7.65;;;;;;;9.44;88.22;97651.02;1653938;87;21094;-79
2021/05/29 02:18:29;;;;;;;9.68;8.33;;;;;;;9.43;88.31;97649.26;1653013;87;21079;-79
2021/05/29 02:21:03;;;;;;;8.30;7.45;;;;;;;9.42;88.67;97651.98;1652989;87;21075;-80
2021/05/29 02:23:40;;;;;;;10.28;7.22;;;;;;;9.41;88.86;97652.86;1641200;86;21061;-79
2021/05/29 02:26:13;;;;;;;11.12;8.05;;;;;;;9.36;90.55;97653.89;1643595;86;21554;-79
2021/05/29 02:28:43;;;;;;;10.23;7.42;;;;;;;9.34;89.82;97655.70;1648380;87;21051;-79
2021/05/29 02:31:12;;;;;;;10.88;7.90;;;;;;;9.35;90.25;97657.42;1654803;87;21035;-79
2021/05/29 02:33:40;;;;;;;10.93;7.33;;;;;;;9.37;89.67;97658.27;1654820;87;21035;-79
2021/05/29 02:36:08;;;;;;;8.05;7.25;;;;;;;9.43;89.45;97656.34;1656681;87;21043;-79
2021/05/29 02:38:36;;;;;;;13.58;7.10;;;;;;;9.45;89.26;97655.83;1657283;84;21066;-78
2021/05/29 02:41:09;;;;;;;9.20;6.75;;;;;;;9.44;89.34;97654.98;1657203;87;21090;-78
2021/05/29 02:43:36;;;;;;;10.20;6.45;;;;;;;9.47;89.70;97660.16;1657198;84;21114;-78
2021/05/29 02:46:03;;;;;;;8.98;6.85;;;;;;;9.54;90.62;97656.03;1658445;85;21039;-79
2021/05/29 02:48:30;;;;;;;8.65;6.65;;;;;;;9.57;90.82;97656.79;1662463;86;20986;-79
2021/05/29 02:50:57;;;;;;;11.70;6.83;;;;;;;9.63;90.59;97663.65;1652618;83;21128;-78
2021/05/29 02:53:23;;;;;;;7.12;6.00;;;;;;;9.67;91.20;97656.03;1643855;87;21022;-78
2021/05/29 02:55:50;;;;;;;11.83;5.97;;;;;;;9.71;91.29;97649.73;1643361;87;21080;-79
2021/05/29 02:58:16;;;;;;;6.05;5.45;;;;;;;9.76;90.89;97655.74;1642919;87;21073;-79
2021/05/29 03:00:46;;;;;;;8.28;5.87;;;;;;;9.81;90.63;97650.32;1641476;87;21077;-80
2021/05/29 03:03:14;;;;;;;10.08;5.95;;;;;;;9.87;90.91;97653.20;1641552;87;21061;-79
2021/05/29 03:05:45;;;;;;;9.63;6.00;;;;;;;9.87;90.73;97651.88;1652699;84;21035;-80
2021/05/29 03:08:15;;;;;;;10.95;6.03;;;;;;;9.88;90.58;97654.48;1665406;86;21102;-79
2021/05/29 03:10:44;;;;;;;6.85;5.85;;;;;;;9.86;90.88;97657.66;1665330;86;21110;-79
2021/05/29 03:13:12;;;;;;;8.60;6.20;;;;;;;9.88;90.70;97654.48;1666719;86;21050;-79
2021/05/29 03:15:39;;;;;;;8.23;6.12;;;;;;;9.96;90.30;97665.30;1667164;86;21070;-79
2021/05/29 03:18:07;;;;;;;7.03;6.20;;;;;;;9.95;90.14;97666.19;1666687;86;21105;-80
2021/05/29 03:20:35;;;;;;;10.93;6.33;;;;;;;9.95;89.80;97668.39;1667540;86;21110;-80
2021/05/29 03:23:04;;;;;;;12.90;6.78;;;;;;;9.97;89.49;97662.58;1668217;86;21100;-80
2021/05/29 03:25:30;;;;;;;8.20;5.97;;;;;;;9.97;89.85;97661.25;1662409;86;21081;-78
2021/05/29 03:27:59;;;;;;;8.05;6.10;;;;;;;9.97;89.69;97661.25;1641219;87;21073;-78
2021/05/29 03:30:29;;;;;;;8.55;6.67;;;;;;;10.00;89.59;97665.58;1641261;87;21113;-79
2021/05/29 03:32:58;;;;;;;7.37;6.35;;;;;;;9.99;90.19;97664.73;1641151;87;21561;-79
2021/05/29 03:35:24;;;;;;;8.78;6.70;;;;;;;10.02;89.22;97667.74;1641161;87;21033;-79
2021/05/29 03:37:51;;;;;;;9.38;6.12;;;;;;;10.04;89.36;97660.60;1644624;86;21143;-79
2021/05/29 03:40:19;;;;;;;9.53;6.55;;;;;;;10.07;89.24;97660.52;1666164;86;21081;-80
2021/05/29 03:42:46;;;;;;;9.08;6.50;;;;;;;10.09;89.25;97659.98;1641948;86;21112;-80
2021/05/29 03:45:16;;;;;;;7.28;5.90;;;;;;;10.11;89.30;97662.59;1654771;86;21045;-80
2021/05/29 03:47:44;;;;;;;8.65;6.30;;;;;;;10.12;88.98;97665.19;1661299;85;21155;-80
2021/05/29 03:50:14;;;;;;;8.45;6.37;;;;;;;10.16;88.73;97667.27;1658402;86;21068;-80
2021/05/29 03:52:42;;;;;;;8.10;6.10;;;;;;;10.21;88.62;97663.17;1644502;86;22263;-80
2021/05/29 03:55:12;;;;;;;7.55;6.22;;;;;;;10.25;88.55;97657.70;1631677;88;21085;-79
2021/05/29 03:57:38;;;;;;;8.35;5.95;;;;;;;10.30;88.67;97669.48;1631651;88;21530;-80
2021/05/29 04:00:08;;;;;;;8.05;5.83;;;;;;;10.33;88.04;97664.06;1631663;88;21030;-79
2021/05/29 04:02:37;;;;;;;9.78;5.90;;;;;;;10.34;87.90;97670.23;1633405;86;21567;-80
2021/05/29 04:05:06;;;;;;;8.95;6.40;;;;;;;10.35;87.97;97663.56;1633154;86;21056;-78
2021/05/29 04:07:33;;;;;;;9.45;6.20;;;;;;;10.36;87.95;97668.39;1646182;85;21532;-79
2021/05/29 04:10:00;;;;;;;7.28;5.75;;;;;;;10.37;88.00;97667.46;1657309;86;21065;-78
2021/05/29 04:12:30;;;;;;;8.30;6.00;;;;;;;10.35;87.64;97661.37;1658471;86;21076;-79
2021/05/29 04:14:56;;;;;;;6.70;6.00;;;;;;;10.35;87.55;97660.92;1657431;86;21118;-78
2021/05/29 04:17:22;;;;;;;6.70;5.90;;;;;;;10.37;88.01;97663.05;1657482;86;21050;-79
2021/05/29 04:19:49;;;;;;;6.75;6.03;;;;;;;10.38;87.72;97653.33;1658431;86;21065;-79
2021/05/29 04:22:15;;;;;;;6.70;5.45;;;;;;;10.41;87.92;97659.82;1658306;86;21101;-79
2021/05/29 04:24:42;;;;;;;7.33;5.47;;;;;;;10.41;87.70;97658.05;1658448;86;21121;-79
2021/05/29 04:27:08;;;;;;;7.67;5.53;;;;;;;10.47;87.19;97658.34;1651908;86;21522;-79
2021/05/29 04:29:35;;;;;;;9.25;5.50;;;;;;;10.56;86.93;97654.50;1643744;86;21065;-79
2021/05/29 04:32:03;;;;;;;8.88;5.15;;;;;;;10.62;87.03;97648.09;1646881;86;21085;-79
2021/05/29 04:34:30;;;;;;;5.92;4.67;;;;;;;10.70;86.59;97644.72;1658328;86;21073;-79
2021/05/29 04:36:58;;;;;;;7.25;4.60;;;;;;;10.82;86.43;97647.39;1658445;86;21591;-79
2021/05/29 04:39:25;;;;;;;8.68;5.00;;;;;;;10.94;86.78;97636.36;1657921;86;21569;-79
2021/05/29 04:41:52;;;;;;;5.03;4.42;;;;;;;11.08;85.79;97638.93;1658356;86;21121;-79
2021/05/29 04:44:18;;;;;;;4.97;4.47;;;;;;;11.26;86.18;97636.52;1658423;86;21084;-79
2021/05/29 04:47:00;;;;;;;7.28;4.50;;;;;;;11.37;83.97;97640.94;1655827;86;21145;-79
2021/05/29 04:49:22;;;;;;;19.23;12.40;;;;;;;11.49;84.17;97635.17;1611407;88;21074;-79
2021/05/29 04:51:49;;;;;;;6.17;5.22;;;;;;;11.62;83.69;97634.67;1634514;86;21053;-79
2021/05/29 04:54:16;;;;;;;5.85;4.67;;;;;;;11.71;83.41;97630.81;1645239;86;21097;-80
2021/05/29 04:56:43;;;;;;;12.40;5.05;;;;;;;11.79;81.94;97630.50;1642574;86;21081;-82
2021/05/29 04:59:10;;;;;;;7.45;5.25;;;;;;;11.87;83.17;97623.94;1658453;86;21073;-81
2021/05/29 05:01:37;;;;;;;9.35;5.08;;;;;;;11.97;82.42;97626.22;1658476;86;21065;-81
2021/05/29 05:04:04;;;;;;;8.60;5.72;;;;;;;12.02;81.45;97629.55;1658551;86;21045;-82
2021/05/29 05:06:31;;;;;;;7.62;5.33;;;;;;;12.08;81.10;97627.99;1658436;86;21123;-82
2021/05/29 05:08:58;;;;;;;7.12;4.60;;;;;;;12.14;80.39;97629.05;1658273;86;21081;-81
2021/05/29 05:11:26;;;;;;;9.25;4.83;;;;;;;12.14;79.54;97618.91;1658141;86;21084;-81
2021/05/29 05:13:52;;;;;;;8.58;4.60;;;;;;;12.18;79.91;97614.33;1654685;86;21407;-82
2021/05/29 05:16:19;;;;;;;7.17;5.50;;;;;;;12.23;79.69;97617.20;1631640;88;21060;-81
2021/05/29 05:18:46;;;;;;;8.68;5.33;;;;;;;12.27;79.44;97612.61;1651457;86;21077;-82
2021/05/29 05:21:13;;;;;;;5.53;5.00;;;;;;;12.32;79.23;97610.62;1640385;86;21034;-81
2021/05/29 05:23:40;;;;;;;8.33;4.50;;;;;;;12.39;79.33;97609.89;1638229;86;21086;-81
2021/05/29 05:26:07;;;;;;;7.80;5.20;;;;;;;12.49;78.86;97611.67;1658448;86;21554;-81
2021/05/29 05:28:33;;;;;;;9.95;4.70;;;;;;;12.56;78.85;97610.94;1658326;86;21069;-80
2021/05/29 05:31:04;;;;;;;5.92;4.37;;;;;;;12.64;78.98;97612.36;1658339;86;21046;-82
2021/05/29 05:33:37;;;;;;;11.18;6.65;;;;;;;12.69;78.35;97617.45;1647275;86;21089;-82
2021/05/29 05:36:01;;;;;;;20.25;12.68;;;;;;;12.74;78.46;97619.92;1631681;88;21606;-83
2021/05/29 05:38:28;;;;;;;6.45;5.05;;;;;;;12.74;78.54;97614.13;1631647;88;21062;-82
2021/05/29 05:40:54;;;;;;;5.28;4.70;;;;;;;12.78;78.40;97614.39;1631712;88;21097;-82
2021/05/29 05:43:21;;;;;;;6.20;4.40;;;;;;;12.80;77.70;97614.33;1651297;86;21578;-81
2021/05/29 05:45:47;;;;;;;5.70;4.20;;;;;;;12.85;77.42;97609.66;1647708;86;21061;-82
2021/05/29 05:48:14;;;;;;;6.78;4.35;;;;;;;12.93;77.21;97613.30;1658791;86;21061;-81
2021/05/29 05:50:52;;;;;;;5.30;4.50;;;;;;;13.01;76.83;97609.84;1659148;86;21463;-81
2021/05/29 05:53:09;;;;;;;9.65;4.05;;;;;;;13.07;76.27;97610.88;1659190;86;21101;-82
2021/05/29 05:55:37;;;;;;;7.12;3.65;;;;;;;13.21;76.96;97602.73;1639869;86;21118;-81
2021/05/29 05:58:04;;;;;;;8.95;4.08;;;;;;;13.32;75.22;97605.73;1632491;87;21085;-82
2021/05/29 06:00:31;;;;;;;6.37;4.47;;;;;;;13.44;73.95;97604.75;1632376;88;21105;-80
2021/05/29 06:02:57;;;;;;;4.92;4.42;;;;;;;13.52;74.06;97605.29;1632415;88;21538;-81
2021/05/29 06:05:25;;;;;;;6.08;4.72;;;;;;;13.58;73.85;97603.66;1632397;88;21081;-81
2021/05/29 06:07:51;;;;;;;5.25;4.05;;;;;;;13.68;74.23;97599.22;1635724;86;21065;-81
2021/05/29 06:10:19;;;;;;;5.67;4.17;;;;;;;13.77;74.45;97592.57;1632379;87;21101;-81
2021/05/29 06:12:49;;;;;;;4.85;4.17;;;;;;;13.89;74.00;97596.44;1639783;86;21069;-82
2021/05/29 06:18:06;;;;;;;4.75;3.87;;;;;;;14.10;73.20;97589.17;1632877;86;21543;-81
2021/05/29 06:20:34;;;;;;;6.50;3.95;;;;;;;14.24;73.48;97592.45;1648517;86;21090;-81
2021/05/29 06:23:00;;;;;;;5.92;3.60;;;;;;;14.38;71.63;97593.95;1635622;86;21069;-81
2021/05/29 06:25:27;;;;;;;7.05;3.87;;;;;;;14.58;70.66;97593.37;1662178;86;21069;-81
2021/05/29 06:27:53;;;;;;;4.95;3.42;;;;;;;14.72;69.18;97582.46;1659035;86;21042;-81
2021/05/29 06:30:21;;;;;;;5.30;3.37;;;;;;;14.90;70.29;97585.52;1653059;86;21046;-81
2021/05/29 06:32:47;;;;;;;4.92;3.17;;;;;;;15.08;68.90;97580.14;1659054;86;21519;-82
2021/05/29 06:35:14;;;;;;;4.47;3.50;;;;;;;15.29;68.76;97586.56;1658953;86;21097;-81
2021/05/29 06:37:41;;;;;;;4.20;3.17;;;;;;;15.47;69.71;97581.12;1645590;86;21061;-82
2021/05/29 06:40:09;;;;;;;9.40;4.42;;;;;;;15.61;69.53;97583.03;1632296;88;21532;-81
2021/05/29 06:42:36;;;;;;;5.40;3.87;;;;;;;15.71;66.69;97587.75;1637966;86;21037;-81
2021/05/29 06:45:05;;;;;;;6.67;3.58;;;;;;;15.78;63.50;97591.42;1649161;86;21602;-81
2021/05/29 06:47:31;;;;;;;10.18;4.03;;;;;;;15.83;65.62;97590.69;1644379;86;21614;-81
2021/05/29 06:49:58;;;;;;;6.65;3.45;;;;;;;15.87;64.63;97586.89;1658457;86;21133;-82
2021/05/29 06:52:28;;;;;;;4.03;3.10;;;;;;;15.90;63.90;97592.03;1635540;86;21129;-82
2021/05/29 06:55:02;;;;;;;4.97;3.37;;;;;;;15.96;65.13;97590.86;1630288;88;21058;-82
2021/05/29 07:00:11;;;;;;;5.62;3.80;;;;;;;16.08;61.52;97591.46;1630428;88;21082;-81
2021/05/29 07:02:39;;;;;;;4.70;3.80;;;;;;;16.21;63.13;97581.40;1630348;88;21078;-82
2021/05/29 07:05:10;;;;;;;4.85;3.60;;;;;;;16.36;63.58;97582.31;1630333;88;21101;-83
2021/05/29 07:07:38;;;;;;;4.15;3.40;;;;;;;16.50;61.82;97588.16;1633309;86;21538;-82
2021/05/29 07:10:07;;;;;;;3.85;3.35;;;;;;;16.60;62.24;97584.42;1652598;86;21056;-83
2021/05/29 07:12:34;;;;;;;6.45;3.80;;;;;;;16.71;62.96;97582.44;1631711;88;21049;-82
2021/05/29 07:15:00;;;;;;;5.97;4.35;;;;;;;16.79;60.47;97584.64;1636283;86;21105;-82
2021/05/29 07:17:32;;;;;;;6.50;3.80;;;;;;;16.91;62.57;97581.22;1658363;86;21022;-82
2021/05/29 07:19:58;;;;;;;5.53;3.77;;;;;;;17.00;58.96;97584.66;1658590;86;21058;-82
2021/05/29 07:22:24;;;;;;;4.45;3.35;;;;;;;16.97;58.53;97580.83;1646098;86;21110;-82
2021/05/29 07:24:51;;;;;;;7.00;3.47;;;;;;;16.96;58.98;97580.45;1631572;87;21578;-82
2021/05/29 07:27:18;;;;;;;5.62;3.55;;;;;;;16.95;58.56;97588.58;1658076;85;21015;-83
2021/05/29 07:29:44;;;;;;;7.87;3.37;;;;;;;16.98;60.13;97585.72;1658534;86;21125;-82
2021/05/29 07:32:11;;;;;;;6.33;3.95;;;;;;;17.02;59.48;97584.08;1655827;86;21097;-83
2021/05/29 07:34:37;;;;;;;4.72;3.72;;;;;;;16.99;55.87;97582.92;1668340;86;21042;-82
2021/05/29 07:37:04;;;;;;;7.70;3.62;;;;;;;17.02;58.73;97583.20;1668219;86;21097;-82
2021/05/29 07:39:32;;;;;;;4.35;3.42;;;;;;;17.07;59.55;97584.30;1668148;85;21463;-83
2021/05/29 07:41:58;;;;;;;6.05;3.58;;;;;;;17.08;59.08;97582.88;1647278;86;21046;-83
2021/05/29 07:44:25;;;;;;;5.37;3.40;;;;;;;17.06;58.96;97579.41;1668174;85;21068;-82
2021/05/29 07:46:51;;;;;;;4.67;3.67;;;;;;;17.05;58.41;97573.69;1668183;86;21126;-81
2021/05/29 07:49:18;;;;;;;5.22;3.42;;;;;;;17.04;59.13;97580.00;1666828;85;21087;-81
2021/05/29 07:51:44;;;;;;;5.53;3.95;;;;;;;17.07;58.93;97571.76;1638111;88;21085;-82
2021/05/29 07:54:12;;;;;;;4.95;3.22;;;;;;;17.12;59.61;97567.00;1664446;86;21089;-81
2021/05/29 07:56:39;;;;;;;7.33;3.58;;;;;;;17.19;58.24;97583.52;1644911;87;21058;-82
2021/05/29 07:59:10;;;;;;;3.62;3.20;;;;;;;17.17;57.90;97572.05;1635724;88;21164;-80
2021/05/29 08:01:36;;;;;;;6.30;3.50;;;;;;;17.21;58.37;97566.89;1635949;86;21207;-81
2021/05/29 08:04:03;;;;;;;5.78;3.65;;;;;;;17.34;57.73;97565.62;1685269;85;21126;-81
2021/05/29 08:06:30;;;;;;;7.35;4.17;;;;;;;17.44;58.57;97570.38;1685245;85;21044;-81
2021/05/29 08:08:57;;;;;;;7.60;3.70;;;;;;;17.64;59.60;97564.58;1685318;85;21220;-80
2021/05/29 08:11:24;;;;;;;5.70;3.65;;;;;;;17.78;55.86;97570.36;1685364;85;21052;-81
2021/05/29 08:13:54;;;;;;;6.30;3.70;;;;;;;17.87;55.95;97566.70;1665832;85;21108;-81
2021/05/29 08:16:24;;;;;;;3.77;3.30;;;;;;;17.88;55.87;97566.61;1685293;85;21063;-81
2021/05/29 08:18:52;;;;;;;4.10;3.55;;;;;;;17.98;55.53;97568.17;1685293;85;21064;-80
2021/05/29 08:21:19;;;;;;;6.08;3.55;;;;;;;18.06;56.38;97559.65;1685162;85;21051;-81
2021/05/29 08:23:46;;;;;;;5.90;3.65;;;;;;;18.24;56.95;97556.69;1685268;85;21103;-81
2021/05/29 08:26:13;;;;;;;5.62;3.60;;;;;;;18.49;57.52;97554.53;1685236;85;21505;-81
2021/05/29 08:28:42;;;;;;;5.97;3.70;;;;;;;18.72;57.40;97550.23;1685383;85;21501;-81
2021/05/29 08:31:08;;;;;;;6.12;3.37;;;;;;;18.91;57.19;97548.08;1685351;85;21068;-80
2021/05/29 08:33:35;;;;;;;6.47;3.85;;;;;;;18.99;52.85;97547.89;1685162;85;21044;-81
2021/05/29 08:36:02;;;;;;;4.45;3.10;;;;;;;19.08;53.68;97549.59;1685219;85;21088;-81
2021/05/29 08:38:29;;;;;;;5.80;3.40;;;;;;;19.21;52.14;97550.90;1685323;85;21089;-81
2021/05/29 08:40:56;;;;;;;5.45;3.62;;;;;;;19.26;52.99;97557.67;1685240;85;21020;-81
2021/05/29 08:43:22;;;;;;;4.45;3.40;;;;;;;19.36;53.17;97563.22;1685398;85;21068;-81
2021/05/29 08:45:49;;;;;;;6.15;3.80;;;;;;;19.53;54.13;97568.70;1685293;85;21076;-81
2021/05/29 08:48:17;;;;;;;5.22;3.50;;;;;;;19.65;52.77;97566.10;1642546;85;21061;-81
2021/05/29 08:53:31;;;;;;;5.45;3.37;;;;;;;19.80;51.91;97560.05;1687896;85;21034;-82
2021/05/29 08:55:58;;;;;;;4.33;3.15;;;;;;;19.87;52.85;97558.64;1692457;84;21050;-82
2021/05/29 08:58:27;;;;;;;5.70;3.37;;;;;;;19.99;52.60;97565.44;1716326;82;21079;-80
2021/05/29 09:00:54;;;;;;;4.03;3.30;;;;;;;20.01;50.56;97571.58;1735354;82;21130;-81
2021/05/29 09:03:21;;;;;;;5.17;3.65;;;;;;;19.96;49.94;97562.97;1729712;82;21060;-81
2021/05/29 09:05:53;;;;;;;4.40;3.35;;;;;;;20.01;51.06;97571.07;1729854;82;21023;-81
2021/05/29 09:08:22;;;;;;;19.42;13.32;;;;;;;20.05;50.50;97570.34;1729800;83;21166;-81
2021/05/29 09:10:56;;;;;;;8.18;6.50;;;;;;;20.02;50.39;97564.71;1729868;82;21016;-81
2021/05/29 09:13:28;;;;;;;5.15;3.45;;;;;;;20.09;52.04;97558.89;1730100;82;21019;-82
2021/05/29 09:16:06;;;;;;;3.90;3.12;;;;;;;20.08;49.41;97563.88;1729711;82;21020;-82
2021/05/29 09:18:39;;;;;;;3.42;2.90;;;;;;;20.09;51.11;97559.73;1704224;82;21492;-82
2021/05/29 09:21:20;;;;;;;4.03;3.20;;;;;;;20.24;49.05;97552.81;1708518;82;21007;-81
2021/05/29 09:23:58;;;;;;;3.77;3.20;;;;;;;20.31;50.02;97546.84;1713491;83;21035;-83
2021/05/29 09:26:47;;;;;;;4.55;3.30;;;;;;;20.32;49.27;97554.44;1683607;84;21067;-83
2021/05/29 09:29:28;;;;;;;4.55;3.42;;;;;;;20.13;45.56;97569.29;1698520;84;21087;-85
2021/05/29 09:32:07;;;;;;;3.67;3.08;;;;;;;20.06;47.97;97555.95;1698519;84;21059;-86
2021/05/29 09:34:53;;;;;;;5.00;3.17;;;;;;;20.18;49.75;97546.92;1702763;83;21097;-85
2021/05/29 09:37:28;;;;;;;3.90;3.20;;;;;;;20.00;46.04;97557.73;1704935;83;21059;-84
2021/05/29 09:40:06;;;;;;;3.02;2.50;;;;;;;20.10;46.60;97557.91;1697806;84;21496;-83
2021/05/29 09:42:37;;;;;;;4.37;3.08;;;;;;;20.15;46.57;97557.07;1696974;84;21099;-83
2021/05/29 09:45:20;;;;;;;3.67;3.10;;;;;;;20.16;48.40;97557.44;1697557;84;21000;-81
2021/05/29 09:48:16;;;;;;;3.52;2.80;;;;;;;20.20;48.94;97558.05;1697696;84;21059;-83
2021/05/29 09:51:10;;;;;;;4.85;2.92;;;;;;;20.19;48.13;97567.97;1697620;84;21003;-81
2021/05/29 09:53:45;;;;;;;3.92;2.75;;;;;;;19.90;46.75;97562.42;1697922;84;21047;-81
2021/05/29 09:56:35;;;;;;;4.05;2.70;;;;;;;19.87;47.52;97568.05;1697711;84;21027;-81
2021/05/29 09:59:13;;;;;;;3.12;2.62;;;;;;;20.02;48.25;97564.71;1697615;84;21047;-81
2021/05/29 10:01:52;;;;;;;4.28;2.80;;;;;;;20.24;46.86;97562.23;1697255;84;21027;-81
2021/05/29 10:07:01;;;;;;;3.98;2.83;;;;;;;20.40;46.85;97556.05;1694344;84;21483;-82
2021/05/29 10:09:29;;;;;;;4.42;2.70;;;;;;;20.62;47.05;97558.41;1699888;84;21038;-83
2021/05/29 10:11:57;;;;;;;3.40;2.70;;;;;;;20.68;45.50;97565.16;1699894;84;21503;-83
2021/05/29 10:14:24;;;;;;;4.05;2.50;;;;;;;20.68;45.12;97559.27;1699982;84;20989;-84
2021/05/29 10:16:51;;;;;;;5.70;2.90;;;;;;;20.41;44.83;97560.94;1700142;84;21046;-83
2021/05/29 10:19:22;;;;;;;3.60;2.67;;;;;;;20.43;46.54;97559.00;1699979;84;21042;-82
2021/05/29 10:21:51;;;;;;;6.40;2.75;;;;;;;20.63;45.59;97558.78;1700048;84;21510;-83
2021/05/29 10:24:20;;;;;;;3.40;2.70;;;;;;;20.76;46.24;97560.02;1699984;84;21042;-83
2021/05/29 10:26:50;;;;;;;3.42;2.77;;;;;;;20.67;44.61;97558.91;1699732;83;21109;-83
2021/05/29 10:29:23;;;;;;;4.00;2.62;;;;;;;20.79;46.65;97553.53;1700058;84;21570;-84
2021/05/29 10:31:50;;;;;;;3.33;2.30;;;;;;;20.90;45.38;97545.51;1700328;84;21065;-82
2021/05/29 10:34:18;;;;;;;4.45;2.90;;;;;;;20.95;44.13;97557.25;1699873;84;21064;-78
2021/05/29 10:36:56;;;;;;;2.95;2.60;;;;;;;20.83;43.65;97565.78;1700025;84;21072;-79
2021/05/29 10:39:39;;;;;;;3.50;2.67;;;;;;;20.79;43.92;97556.22;1700352;82;21017;-78
2021/05/29 10:42:06;;;;;;;5.00;2.60;;;;;;;20.81;45.68;97552.94;1700323;84;21041;-79
2021/05/29 10:44:41;;;;;;;3.00;2.40;;;;;;;20.86;45.27;97557.50;1700061;84;21502;-79
2021/05/29 10:47:20;;;;;;;3.98;2.20;;;;;;;20.59;44.55;97551.91;1699951;84;21022;-79
2021/05/29 10:49:56;;;;;;;3.72;2.70;;;;;;;20.89;46.51;97552.36;1692430;83;21567;-84
2021/05/29 10:52:43;;;;;;;3.05;2.50;;;;;;;21.19;45.68;97546.36;1693258;83;21027;-81
2021/05/29 10:55:19;;;;;;;2.80;2.60;;;;;;;21.32;45.98;97539.96;1698496;84;21051;-78
2021/05/29 10:58:03;;;;;;;14.70;11.97;;;;;;;21.52;45.58;97548.26;1703977;83;21054;-80
2021/05/29 11:00:41;;;;;;;14.63;9.53;;;;;;;21.28;44.89;97537.14;1682230;83;21108;-76
2021/05/29 11:03:28;;;;;;;7.40;4.90;;;;;;;21.19;45.33;97554.92;1680168;83;21467;-77
2021/05/29 11:06:01;;;;;;;7.90;5.87;;;;;;;21.26;46.16;97548.55;1673706;85;20995;-77
2021/05/29 11:08:58;;;;;;;3.95;2.83;;;;;;;21.13;45.86;97546.83;1650206;86;21026;-75
2021/05/29 11:11:48;;;;;;;3.30;2.70;;;;;;;21.37;45.78;97543.14;1637196;87;21055;-77
2021/05/29 11:14:27;;;;;;;3.25;2.40;;;;;;;21.34;45.84;97552.84;1627099;88;21033;-77
2021/05/29 11:17:01;;;;;;;4.28;2.60;;;;;;;21.04;43.84;97543.05;1624566;87;21069;-76
2021/05/29 11:19:33;;;;;;;8.35;6.30;;;;;;;20.55;44.05;97556.69;1632506;86;21034;-76
2021/05/29 11:22:18;;;;;;;5.92;4.12;;;;;;;20.23;44.75;97558.70;1635729;88;21173;-76
2021/05/29 11:24:57;;;;;;;5.60;3.00;;;;;;;20.08;46.32;97563.40;1635751;88;21018;-78
2021/05/29 11:27:27;;;;;;;5.83;3.33;;;;;;;20.10;46.23;97560.09;1635750;88;21483;-77
2021/05/29 11:30:32;;;;;;;3.10;2.60;;;;;;;20.13;46.10;97565.73;1635731;88;21452;-77
2021/05/29 11:35:48;;;;;;;4.55;4.08;;;;;;;19.84;46.85;97572.81;1627361;88;21157;-80
2021/05/29 11:38:29;;;;;;;3.60;2.62;;;;;;;19.80;47.18;97580.22;1635686;88;21565;-77
2021/05/29 11:41:00;;;;;;;3.65;2.75;;;;;;;19.74;47.27;97578.00;1635683;88;21543;-76
2021/05/29 11:43:48;;;;;;;4.70;3.08;;;;;;;19.74;47.36;97580.21;1638041;85;21337;-76
2021/05/29 11:46:26;;;;;;;3.00;2.65;;;;;;;19.53;46.49;97580.80;1629962;88;21515;-77
2021/05/29 11:49:01;;;;;;;3.62;2.35;;;;;;;19.51;47.08;97569.78;1645403;85;21075;-76
2021/05/29 11:51:34;;;;;;;4.65;3.55;;;;;;;19.39;47.52;97573.75;1632219;85;21491;-76
2021/05/29 11:54:15;;;;;;;3.27;2.67;;;;;;;19.30;47.68;97585.16;1623932;88;21054;-77
2021/05/29 11:56:50;;;;;;;7.78;5.35;;;;;;;19.33;48.18;97577.36;1629618;88;21465;-79
2021/05/29 11:59:20;;;;;;;6.70;4.95;;;;;;;19.19;47.28;97571.66;1635526;87;21569;-77
2021/05/29 12:01:51;;;;;;;4.78;3.37;;;;;;;18.95;47.76;97573.74;1628989;88;21088;-78